KLVM/LVM METAR and TAF weather

Enter ICAO airport designator
Station Type Date Time Source
KLVM METAR 2019/08/22 14:53 UTC NOAA

KLVM 221453Z AUTO 32010KT 10SM CLR 18/08 A2985 RMK AO2 SLP059 T01830078 51008


Station Type Date Time Source
KLVM Decoded METAR 2019/08/22 14:53 UTC NOAA

Station name not available
Aug 22, 2019 - 10:53 AM EDT / 2019.08.22 1453 UTC
Wind: from the NW (320 degrees) at 12 MPH (10 KT):0
Visibility: 10 mile(s):0
Sky conditions: clear
Temperature: 64.9 F (18.3 C)
Dew Point: 46.0 F (7.8 C)
Relative Humidity: 50%
Pressure (altimeter): 29.85 in. Hg (1010 hPa)
Pressure tendency: 0.02 inches (0.8 hPa) higher than three hours ago
ob: KLVM 221453Z AUTO 32010KT 10SM CLR 18/08 A2985 RMK AO2 SLP059 T01830078 51008
cycle: 15

Station Type Date Time Source
KLVM TAF 2019/08/22 12:24 UTC NOAA

TAF KLVM 221120Z 2212/2312 VRB06KT P6SM SCT250
FM221800 28012G19KT P6SM VCTS BKN100CB OVC250
FM230100 25014KT P6SM -RA OVC060
FM230900 24012KT P6SM OVC050

Example: see airport list